createdAt,value
2023-04-20T00:01:49.432Z,3.35
2023-04-20T00:04:17.169Z,4.60
2023-04-20T00:06:45.669Z,3.92
2023-04-20T00:09:14.010Z,4.05
2023-04-20T00:11:42.187Z,3.38
2023-04-20T00:14:09.875Z,4.57
2023-04-20T00:16:39.570Z,3.20
2023-04-20T00:19:08.303Z,3.85
2023-04-20T00:21:35.982Z,4.28
2023-04-20T00:24:04.986Z,3.58
2023-04-20T00:26:32.606Z,6.70
2023-04-20T00:29:00.583Z,5.75
2023-04-20T00:31:28.287Z,5.60
2023-04-20T00:33:55.882Z,6.18
2023-04-20T00:36:23.363Z,5.80
2023-04-20T00:38:51.853Z,3.53
2023-04-20T00:41:19.355Z,6.22
2023-04-20T00:43:53.963Z,3.78
2023-04-20T00:46:22.597Z,4.82
2023-04-20T00:48:54.077Z,4.72
2023-04-20T00:51:22.383Z,4.85
2023-04-20T00:53:49.489Z,4.72
2023-04-20T00:56:17.529Z,6.35
2023-04-20T00:58:46.862Z,3.90
2023-04-20T01:01:17.990Z,3.85
2023-04-20T01:03:47.036Z,4.13
2023-04-20T01:06:15.048Z,6.75
2023-04-20T01:08:47.680Z,5.45
2023-04-20T01:11:14.963Z,4.32
2023-04-20T01:13:45.132Z,3.33
2023-04-20T01:16:12.905Z,6.43
2023-04-20T01:18:49.597Z,3.95
2023-04-20T01:21:24.110Z,4.32
2023-04-20T01:23:52.578Z,6.13
2023-04-20T01:26:21.666Z,4.28
2023-04-20T01:28:51.677Z,5.22
2023-04-20T01:31:19.490Z,3.70
2023-04-20T01:33:47.038Z,5.45
2023-04-20T01:36:14.848Z,5.85
2023-04-20T01:38:44.416Z,5.50
2023-04-20T01:41:12.421Z,4.57
2023-04-20T01:43:40.524Z,4.03
2023-04-20T01:46:09.105Z,7.68
2023-04-20T01:48:37.186Z,4.20
2023-04-20T01:51:05.209Z,5.53
2023-04-20T01:53:34.121Z,3.92
2023-04-20T01:56:02.815Z,4.13
2023-04-20T01:58:31.834Z,5.78
2023-04-20T02:01:03.516Z,5.55
2023-04-20T02:03:31.128Z,5.05
2023-04-20T02:05:58.230Z,5.22
2023-04-20T02:08:30.011Z,3.85
2023-04-20T02:10:58.422Z,6.47
2023-04-20T02:13:25.892Z,4.95
2023-04-20T02:15:52.978Z,6.85
2023-04-20T02:18:23.222Z,6.33
2023-04-20T02:20:51.190Z,4.72
2023-04-20T02:23:21.465Z,4.75
2023-04-20T02:25:48.806Z,5.10
2023-04-20T02:28:16.348Z,8.73
2023-04-20T02:30:44.410Z,4.45
2023-04-20T02:33:12.315Z,4.85
2023-04-20T02:35:41.496Z,5.53
2023-04-20T02:38:11.493Z,4.10
2023-04-20T02:40:41.429Z,5.13
2023-04-20T02:43:09.136Z,7.32
2023-04-20T02:45:38.715Z,6.32
2023-04-20T02:48:07.589Z,5.75
2023-04-20T02:50:38.273Z,6.45
2023-04-20T02:53:25.005Z,4.15
2023-04-20T02:59:01.693Z,3.95
2023-04-20T03:01:47.426Z,5.50
2023-04-20T03:04:21.859Z,4.97
2023-04-20T03:07:10.303Z,2.63
2023-04-20T03:09:39.442Z,6.80
2023-04-20T03:12:26.774Z,3.90
2023-04-20T03:14:57.693Z,6.40
2023-04-20T03:17:38.326Z,5.70
2023-04-20T03:20:09.249Z,4.10
2023-04-20T03:22:37.629Z,4.10
2023-04-20T03:25:08.218Z,5.20
2023-04-20T03:27:59.754Z,7.07
2023-04-20T03:30:27.911Z,5.30
2023-04-20T03:33:01.137Z,5.20
2023-04-20T03:35:29.027Z,5.55
2023-04-20T03:37:56.913Z,5.93
2023-04-20T03:40:24.766Z,3.58
2023-04-20T03:42:52.320Z,8.02
2023-04-20T03:45:19.418Z,5.00
2023-04-20T03:47:46.752Z,2.80
2023-04-20T03:50:14.149Z,4.57
2023-04-20T03:52:41.542Z,4.28
2023-04-20T03:55:10.970Z,5.15
2023-04-20T03:57:44.457Z,7.30
2023-04-20T04:00:12.731Z,5.18
2023-04-20T04:02:47.070Z,5.53
2023-04-20T04:05:19.973Z,9.07
2023-04-20T04:07:50.169Z,5.35
2023-04-20T04:10:19.163Z,5.93
2023-04-20T04:12:46.678Z,5.95
2023-04-20T04:15:14.897Z,4.68
2023-04-20T04:17:52.857Z,6.72
2023-04-20T04:20:20.816Z,4.30
2023-04-20T04:22:48.890Z,4.88
2023-04-20T04:25:48.771Z,5.82
2023-04-20T04:28:19.496Z,5.68
2023-04-20T04:30:56.145Z,5.78
2023-04-20T04:33:25.762Z,4.72
2023-04-20T04:35:56.435Z,4.97
2023-04-20T04:38:24.152Z,5.00
2023-04-20T04:40:53.349Z,7.97
2023-04-20T04:43:20.837Z,9.80
2023-04-20T04:45:59.731Z,7.97
2023-04-20T04:48:28.826Z,9.00
2023-04-20T04:50:56.930Z,8.43
2023-04-20T04:53:25.337Z,5.88
2023-04-20T04:55:53.158Z,7.78
2023-04-20T04:58:20.820Z,5.40
2023-04-20T05:00:49.155Z,7.07
2023-04-20T05:03:16.583Z,4.20
2023-04-20T05:05:43.882Z,6.50
2023-04-20T05:08:12.653Z,6.03
2023-04-20T05:10:43.452Z,6.65
2023-04-20T05:13:10.881Z,6.80
2023-04-20T05:15:38.187Z,5.22
2023-04-20T05:18:06.818Z,5.13
2023-04-20T05:20:35.366Z,6.90
2023-04-20T05:23:04.274Z,7.40
2023-04-20T05:25:32.841Z,7.75
2023-04-20T05:28:01.434Z,5.43
2023-04-20T05:30:29.531Z,4.78
2023-04-20T05:32:57.141Z,9.90
2023-04-20T05:35:25.088Z,4.75
2023-04-20T05:37:52.476Z,8.52
2023-04-20T05:40:20.334Z,7.30
2023-04-20T05:42:48.755Z,7.70
2023-04-20T05:45:16.350Z,7.60
2023-04-20T05:47:53.181Z,6.00
2023-04-20T05:50:20.622Z,7.10
2023-04-20T05:52:48.262Z,5.50
2023-04-20T05:55:17.905Z,6.47
2023-04-20T05:57:46.971Z,9.15
2023-04-20T06:00:16.923Z,6.50
2023-04-20T06:02:45.760Z,5.40
2023-04-20T06:05:13.153Z,7.03
2023-04-20T06:07:40.614Z,6.68
2023-04-20T06:10:09.035Z,9.55
2023-04-20T06:12:37.332Z,9.65
2023-04-20T06:15:08.573Z,7.95
2023-04-20T06:17:40.669Z,5.35
2023-04-20T06:20:12.110Z,6.93
2023-04-20T06:22:45.492Z,7.65
2023-04-20T06:25:14.360Z,4.97
2023-04-20T06:27:42.224Z,7.75
2023-04-20T06:30:10.195Z,5.50
2023-04-20T06:32:38.337Z,6.50
2023-04-20T06:35:07.555Z,6.93
2023-04-20T06:37:37.878Z,8.80
2023-04-20T06:40:09.714Z,9.65
2023-04-20T06:42:38.728Z,6.45
2023-04-20T06:45:07.783Z,5.57
2023-04-20T06:47:36.394Z,6.47
2023-04-20T06:50:10.220Z,7.28
2023-04-20T06:52:39.544Z,6.55
2023-04-20T06:55:07.697Z,8.93
2023-04-20T06:57:40.000Z,6.55
2023-04-20T07:00:09.533Z,9.40
2023-04-20T07:02:51.227Z,9.27
2023-04-20T07:05:19.065Z,7.05
2023-04-20T07:07:46.680Z,8.55
2023-04-20T07:10:16.469Z,8.10
2023-04-20T07:12:45.561Z,8.05
2023-04-20T07:15:13.631Z,6.55
2023-04-20T07:17:42.468Z,6.15
2023-04-20T07:20:10.290Z,7.15
2023-04-20T07:22:39.009Z,7.05
2023-04-20T07:25:09.005Z,8.40
2023-04-20T07:27:38.349Z,7.15
2023-04-20T07:30:07.759Z,8.93
2023-04-20T07:32:36.500Z,8.45
2023-04-20T07:35:04.787Z,9.30
2023-04-20T07:37:33.744Z,8.65
2023-04-20T07:40:02.109Z,6.88
2023-04-20T07:42:29.854Z,9.05
2023-04-20T07:44:58.179Z,6.82
2023-04-20T07:47:25.868Z,9.45
2023-04-20T07:49:53.417Z,7.85
2023-04-20T07:52:20.994Z,8.27
2023-04-20T07:54:48.496Z,8.88
2023-04-20T07:57:16.673Z,10.15
2023-04-20T07:59:46.793Z,9.65
2023-04-20T08:02:14.192Z,8.75
2023-04-20T08:04:42.307Z,11.63
2023-04-20T08:07:10.040Z,9.60
2023-04-20T08:09:38.366Z,8.00
2023-04-20T08:12:06.119Z,10.88
2023-04-20T08:14:33.935Z,10.82
2023-04-20T08:17:02.988Z,8.85
2023-04-20T08:19:32.145Z,8.63
2023-04-20T08:22:00.689Z,14.25
2023-04-20T08:24:28.740Z,10.57
2023-04-20T08:26:57.189Z,12.18
2023-04-20T08:29:28.093Z,8.63
2023-04-20T08:31:56.311Z,11.75
2023-04-20T08:34:24.466Z,9.23
2023-04-20T08:36:52.364Z,11.80
2023-04-20T08:39:24.544Z,9.38
2023-04-20T08:41:55.430Z,9.90
2023-04-20T08:44:23.752Z,10.35
2023-04-20T08:46:51.956Z,9.00
2023-04-20T08:49:20.334Z,10.25
2023-04-20T08:51:49.008Z,11.40
2023-04-20T08:54:17.065Z,8.93
2023-04-20T08:56:46.084Z,10.55
2023-04-20T08:59:14.666Z,11.15
2023-04-20T09:01:43.390Z,8.43
2023-04-20T09:04:18.071Z,8.80
2023-04-20T09:06:47.539Z,10.60
2023-04-20T09:09:14.847Z,12.90
2023-04-20T09:11:42.246Z,9.05
2023-04-20T09:14:16.740Z,12.00
2023-04-20T09:16:53.218Z,11.55
2023-04-20T09:19:24.170Z,12.10
2023-04-20T09:21:53.050Z,14.13
2023-04-20T09:24:22.142Z,14.18
2023-04-20T09:26:49.333Z,9.70
2023-04-20T09:29:21.385Z,10.20
2023-04-20T09:31:49.989Z,13.27
2023-04-20T09:34:18.595Z,16.17
2023-04-20T09:36:51.334Z,10.88
2023-04-20T09:39:21.441Z,11.10
2023-04-20T09:41:50.206Z,13.52
2023-04-20T09:44:19.128Z,10.82
2023-04-20T09:46:47.132Z,7.55
2023-04-20T09:49:15.868Z,9.20
2023-04-20T09:51:47.511Z,12.20
2023-04-20T09:54:16.798Z,9.30
2023-04-20T09:56:45.725Z,10.27
2023-04-20T09:59:13.659Z,13.30
2023-04-20T10:01:41.487Z,11.73
2023-04-20T10:04:14.791Z,14.00
2023-04-20T10:06:54.159Z,10.43
2023-04-20T10:09:27.439Z,11.40
2023-04-20T10:12:06.262Z,11.98
2023-04-20T10:14:35.968Z,10.73
2023-04-20T10:17:03.389Z,8.73
2023-04-20T10:19:42.787Z,12.93
2023-04-20T10:22:12.717Z,10.88
2023-04-20T10:24:40.082Z,11.07
2023-04-20T10:27:21.105Z,10.15
2023-04-20T10:29:49.735Z,11.38
2023-04-20T10:32:29.410Z,10.82
2023-04-20T10:35:07.996Z,11.53
2023-04-20T10:37:36.081Z,10.38
2023-04-20T10:40:07.534Z,9.68
2023-04-20T10:42:46.109Z,10.30
2023-04-20T10:45:14.777Z,8.55
2023-04-20T10:47:45.455Z,13.05
2023-04-20T10:50:14.995Z,11.57
2023-04-20T10:52:43.807Z,9.63
2023-04-20T10:55:25.065Z,10.02
2023-04-20T10:57:53.524Z,9.63
2023-04-20T11:00:24.042Z,11.25
2023-04-20T11:02:53.784Z,24.02
2023-04-20T11:05:24.342Z,9.52
2023-04-20T11:07:56.588Z,12.68
2023-04-20T11:10:43.448Z,13.65
2023-04-20T11:13:25.702Z,11.57
2023-04-20T11:15:53.417Z,11.15
2023-04-20T11:18:21.886Z,11.07
2023-04-20T11:20:53.278Z,11.88
2023-04-20T11:23:22.916Z,11.82
2023-04-20T11:25:53.018Z,10.27
2023-04-20T11:30:50.072Z,10.40
2023-04-20T11:33:30.443Z,11.20
2023-04-20T11:35:59.346Z,7.93
2023-04-20T11:38:31.584Z,9.45
2023-04-20T11:41:04.749Z,13.18
2023-04-20T11:43:32.262Z,7.80
2023-04-20T11:46:01.242Z,9.15
2023-04-20T11:48:32.826Z,10.27
2023-04-20T11:51:00.286Z,11.18
2023-04-20T11:53:27.649Z,9.35
2023-04-20T11:55:54.802Z,9.85
2023-04-20T11:58:22.605Z,9.60
2023-04-20T12:00:50.931Z,10.52
2023-04-20T12:03:19.257Z,9.50
2023-04-20T12:05:47.097Z,9.73
2023-04-20T12:08:17.487Z,9.10
2023-04-20T12:10:47.208Z,8.98
2023-04-20T12:13:15.204Z,9.68
2023-04-20T12:15:43.844Z,9.45
2023-04-20T12:18:12.682Z,8.75
2023-04-20T12:20:40.697Z,6.88
2023-04-20T12:23:08.493Z,8.63
2023-04-20T12:25:36.209Z,8.23
2023-04-20T12:28:07.045Z,11.73
2023-04-20T12:30:35.616Z,10.30
2023-04-20T12:33:04.515Z,11.50
2023-04-20T12:35:33.140Z,6.53
2023-04-20T12:38:00.941Z,7.00
2023-04-20T12:40:28.658Z,7.03
2023-04-20T12:42:56.755Z,9.70
2023-04-20T12:45:24.487Z,8.63
2023-04-20T12:47:53.401Z,7.93
2023-04-20T12:50:24.150Z,9.85
2023-04-20T12:52:58.694Z,14.18
2023-04-20T12:55:27.100Z,7.22
2023-04-20T12:57:54.469Z,8.80
2023-04-20T13:00:22.527Z,13.07
2023-04-20T13:02:50.559Z,8.13
2023-04-20T13:05:18.890Z,7.68
2023-04-20T13:07:46.563Z,11.23
2023-04-20T13:10:14.202Z,7.68
2023-04-20T13:12:41.805Z,8.70
2023-04-20T13:15:09.841Z,7.90
2023-04-20T13:17:37.074Z,6.38
2023-04-20T13:20:05.091Z,5.60
2023-04-20T13:22:32.837Z,6.32
2023-04-20T13:25:00.345Z,7.65
2023-04-20T13:27:27.645Z,6.05
2023-04-20T13:29:55.215Z,7.15
2023-04-20T13:32:22.444Z,5.97
2023-04-20T13:34:50.587Z,6.47
2023-04-20T13:37:18.738Z,8.30
2023-04-20T13:39:46.542Z,7.10
2023-04-20T13:42:14.071Z,10.13
2023-04-20T13:44:41.811Z,8.13
2023-04-20T13:47:10.598Z,7.38
2023-04-20T13:49:38.425Z,9.55
2023-04-20T13:52:06.813Z,6.15
2023-04-20T13:54:33.984Z,7.57
2023-04-20T13:57:01.831Z,4.43
2023-04-20T13:59:29.582Z,4.80
2023-04-20T14:01:57.467Z,9.50
2023-04-20T14:04:25.545Z,7.55
2023-04-20T14:06:53.394Z,7.63
2023-04-20T14:09:21.862Z,9.57
2023-04-20T14:11:54.398Z,7.00
2023-04-20T14:14:25.033Z,6.82
2023-04-20T14:16:52.349Z,12.05
2023-04-20T14:19:20.056Z,7.70
2023-04-20T14:21:48.167Z,8.38
2023-04-20T14:24:15.986Z,7.88
2023-04-20T14:26:44.057Z,7.85
2023-04-20T14:29:11.829Z,9.43
2023-04-20T14:31:39.327Z,8.50
2023-04-20T14:34:06.593Z,9.20
2023-04-20T14:36:34.113Z,8.57
2023-04-20T14:39:02.514Z,9.52
2023-04-20T14:41:30.707Z,9.57
2023-04-20T14:43:59.957Z,9.65
2023-04-20T14:46:27.109Z,8.98
2023-04-20T14:48:54.926Z,9.10
2023-04-20T14:51:23.090Z,9.85
2023-04-20T14:53:51.260Z,8.02
2023-04-20T14:56:18.516Z,8.68
2023-04-20T14:58:48.081Z,9.10
2023-04-20T15:01:15.981Z,8.73
2023-04-20T15:03:44.651Z,9.68
2023-04-20T15:06:13.329Z,9.20
2023-04-20T15:08:42.161Z,10.35
2023-04-20T15:11:09.959Z,7.53
2023-04-20T15:13:41.427Z,7.00
2023-04-20T15:16:09.767Z,8.07
2023-04-20T15:18:37.156Z,10.38
2023-04-20T15:21:08.649Z,7.15
2023-04-20T15:23:36.927Z,7.70
2023-04-20T15:26:04.470Z,7.53
2023-04-20T15:28:32.320Z,7.95
2023-04-20T15:30:59.825Z,10.60
2023-04-20T15:33:27.015Z,9.10
2023-04-20T15:35:54.528Z,9.55
2023-04-20T15:38:22.281Z,8.32
2023-04-20T15:40:51.476Z,7.78
2023-04-20T15:43:18.508Z,10.10
2023-04-20T15:45:46.003Z,7.80
2023-04-20T15:48:13.072Z,8.82
2023-04-20T15:50:40.552Z,5.95
2023-04-20T15:53:07.796Z,7.53
2023-04-20T15:55:38.596Z,5.90
2023-04-20T15:58:07.445Z,6.15
2023-04-20T16:00:34.892Z,6.10
2023-04-20T16:03:02.404Z,5.63
2023-04-20T16:05:30.234Z,5.28
2023-04-20T16:07:58.688Z,5.80
2023-04-20T16:10:27.773Z,5.85
2023-04-20T16:12:55.066Z,5.40
2023-04-20T16:15:22.577Z,9.50
2023-04-20T16:17:50.037Z,10.60
2023-04-20T16:20:17.604Z,9.35
2023-04-20T16:22:45.432Z,12.45
2023-04-20T16:25:19.861Z,12.88
2023-04-20T16:27:47.491Z,13.48
2023-04-20T16:30:15.030Z,9.35
2023-04-20T16:32:43.048Z,13.23
2023-04-20T16:35:11.172Z,12.15
2023-04-20T16:37:38.328Z,12.43
2023-04-20T16:40:06.150Z,12.80
2023-04-20T16:42:34.674Z,12.90
2023-04-20T16:45:02.256Z,12.57
2023-04-20T16:47:32.262Z,13.15
2023-04-20T16:50:00.195Z,11.93
2023-04-20T16:52:27.768Z,11.63
2023-04-20T16:54:55.331Z,13.85
2023-04-20T16:57:23.685Z,12.55
2023-04-20T16:59:50.756Z,13.10
2023-04-20T17:02:19.379Z,14.43
2023-04-20T17:04:46.859Z,14.27
2023-04-20T17:07:14.387Z,17.45
2023-04-20T17:09:44.278Z,16.98
2023-04-20T17:12:12.706Z,14.27
2023-04-20T17:14:40.249Z,12.45
2023-04-20T17:17:09.098Z,10.95
2023-04-20T17:19:40.431Z,10.27
2023-04-20T17:22:09.136Z,11.10
2023-04-20T17:24:36.693Z,12.10
2023-04-20T17:27:04.236Z,9.88
2023-04-20T17:29:34.935Z,11.48
2023-04-20T17:32:02.532Z,11.57
2023-04-20T17:34:30.037Z,11.23
2023-04-20T17:36:57.534Z,11.60
2023-04-20T17:39:26.391Z,11.82
2023-04-20T17:41:56.685Z,12.63
2023-04-20T17:44:24.406Z,11.90
2023-04-20T17:46:51.714Z,10.85
2023-04-20T17:49:19.510Z,10.02
2023-04-20T17:51:46.824Z,11.93
2023-04-20T17:54:15.942Z,13.82
2023-04-20T17:56:43.733Z,12.67
2023-04-20T17:59:12.344Z,13.13
2023-04-20T18:01:39.707Z,13.32
2023-04-20T18:04:07.846Z,12.30
2023-04-20T18:06:36.459Z,13.65
2023-04-20T18:09:04.932Z,12.52
2023-04-20T18:11:32.190Z,11.82
2023-04-20T18:14:00.241Z,14.27
2023-04-20T18:16:28.305Z,11.98
2023-04-20T18:18:56.563Z,12.85
2023-04-20T18:21:24.488Z,13.05
2023-04-20T18:23:51.877Z,14.88
2023-04-20T18:26:20.733Z,13.48
2023-04-20T18:28:48.709Z,14.20
2023-04-20T18:31:16.258Z,14.75
2023-04-20T18:33:43.464Z,14.20
2023-04-20T18:36:12.055Z,15.27
2023-04-20T18:38:40.147Z,12.50
2023-04-20T18:41:07.632Z,15.73
2023-04-20T18:43:36.205Z,17.83
2023-04-20T18:46:03.749Z,16.98
2023-04-20T18:48:31.049Z,14.25
2023-04-20T18:51:01.874Z,14.85
2023-04-20T18:53:29.694Z,14.15
2023-04-20T18:55:59.433Z,15.45
2023-04-20T18:58:26.557Z,23.80
2023-04-20T19:00:53.820Z,23.55
2023-04-20T19:03:21.369Z,17.52
2023-04-20T19:05:49.038Z,17.75
2023-04-20T19:08:16.700Z,17.00
2023-04-20T19:10:44.652Z,17.50
2023-04-20T19:13:12.304Z,14.60
2023-04-20T19:15:41.780Z,15.15
2023-04-20T19:18:10.850Z,15.73
2023-04-20T19:20:38.638Z,14.73
2023-04-20T19:23:06.450Z,13.77
2023-04-20T19:25:33.951Z,16.10
2023-04-20T19:28:01.146Z,13.63
2023-04-20T19:30:28.274Z,13.68
2023-04-20T19:32:55.448Z,13.25
2023-04-20T19:35:22.676Z,14.95
2023-04-20T19:37:50.613Z,14.18
2023-04-20T19:40:19.870Z,14.40
2023-04-20T19:42:48.634Z,13.23
2023-04-20T19:45:16.923Z,12.90
2023-04-20T19:47:45.881Z,12.88
2023-04-20T19:50:14.133Z,15.90
2023-04-20T19:52:41.884Z,14.88
2023-04-20T19:55:09.874Z,15.05
2023-04-20T19:57:37.165Z,15.10
2023-04-20T20:00:05.912Z,15.02
2023-04-20T20:02:39.954Z,15.80
2023-04-20T20:05:08.024Z,14.40
2023-04-20T20:07:35.846Z,13.75
2023-04-20T20:10:04.089Z,15.60
2023-04-20T20:12:32.003Z,16.27
2023-04-20T20:14:59.700Z,16.30
2023-04-20T20:17:27.461Z,13.80
2023-04-20T20:19:56.637Z,17.02
2023-04-20T20:22:24.046Z,15.90
2023-04-20T20:24:54.212Z,16.77
2023-04-20T20:27:21.725Z,18.25
2023-04-20T20:29:50.688Z,17.08
2023-04-20T20:32:18.298Z,20.73
2023-04-20T20:34:46.242Z,18.50
2023-04-20T20:37:13.830Z,22.15
2023-04-20T20:39:41.208Z,20.70
2023-04-20T20:42:10.764Z,19.40
2023-04-20T20:44:40.501Z,21.17
2023-04-20T20:47:08.266Z,22.42
2023-04-20T20:49:36.188Z,22.10
2023-04-20T20:52:03.464Z,22.48
2023-04-20T20:54:31.446Z,28.85
2023-04-20T20:56:59.521Z,24.40
2023-04-20T20:59:26.566Z,23.73
2023-04-20T21:01:54.503Z,24.85
2023-04-20T21:04:22.797Z,25.40
2023-04-20T21:06:50.926Z,27.70
2023-04-20T21:09:18.627Z,29.25
2023-04-20T21:11:46.502Z,30.85
2023-04-20T21:14:14.328Z,28.02
2023-04-20T21:16:42.564Z,30.17
2023-04-20T21:19:11.380Z,32.83
2023-04-20T21:21:39.123Z,34.50
2023-04-20T21:24:07.041Z,32.00
2023-04-20T21:26:37.031Z,35.88
2023-04-20T21:29:05.234Z,35.65
2023-04-20T21:31:33.414Z,36.92
2023-04-20T21:34:01.985Z,36.95
2023-04-20T21:36:29.398Z,35.72
2023-04-20T21:38:57.151Z,38.58
2023-04-20T21:41:29.835Z,37.08
2023-04-20T21:43:57.992Z,38.90
2023-04-20T21:46:25.616Z,36.17
2023-04-20T21:48:53.087Z,33.75
2023-04-20T21:51:20.173Z,39.85
2023-04-20T21:53:48.295Z,45.13
2023-04-20T21:56:15.920Z,44.13
2023-04-20T21:58:44.024Z,44.28
2023-04-20T22:01:11.768Z,44.83
2023-04-20T22:03:39.449Z,44.10
2023-04-20T22:06:07.474Z,46.05
2023-04-20T22:08:36.288Z,38.55
2023-04-20T22:11:03.996Z,35.58
2023-04-20T22:13:32.045Z,35.58
2023-04-20T22:16:00.224Z,33.88
2023-04-20T22:18:27.601Z,33.58
2023-04-20T22:20:55.482Z,32.97
2023-04-20T22:23:22.913Z,33.80
2023-04-20T22:25:50.808Z,37.55
2023-04-20T22:28:18.178Z,36.22
2023-04-20T22:30:46.490Z,36.83
2023-04-20T22:33:13.504Z,36.00
2023-04-20T22:35:40.839Z,30.58
2023-04-20T22:38:08.332Z,33.17
2023-04-20T22:40:36.041Z,31.25
2023-04-20T22:43:03.825Z,34.80
2023-04-20T22:45:31.591Z,34.58
2023-04-20T22:47:59.089Z,35.03
2023-04-20T22:50:26.921Z,31.77
2023-04-20T22:52:54.808Z,31.92
2023-04-20T22:55:22.360Z,30.83
2023-04-20T22:57:49.587Z,34.40
2023-04-20T23:00:18.275Z,32.15
2023-04-20T23:02:46.260Z,36.72
2023-04-20T23:05:13.690Z,36.92
2023-04-20T23:07:41.933Z,32.58
2023-04-20T23:10:11.260Z,29.63
2023-04-20T23:12:39.108Z,36.13
2023-04-20T23:15:07.070Z,35.38
2023-04-20T23:17:34.775Z,32.78
2023-04-20T23:20:02.098Z,29.02
2023-04-20T23:22:31.342Z,30.05
2023-04-20T23:24:58.859Z,30.93
2023-04-20T23:27:26.354Z,34.78
2023-04-20T23:29:53.841Z,36.85
2023-04-20T23:32:21.953Z,36.75
2023-04-20T23:34:49.644Z,42.72
2023-04-20T23:37:17.624Z,55.65
2023-04-20T23:39:44.995Z,43.45
2023-04-20T23:42:12.256Z,41.83
2023-04-20T23:44:39.572Z,43.30
2023-04-20T23:47:07.822Z,41.83
2023-04-20T23:49:35.641Z,45.65
2023-04-20T23:52:03.636Z,45.25
2023-04-20T23:54:33.232Z,48.92
2023-04-20T23:57:02.843Z,48.45
2023-04-20T23:59:30.681Z,49.22
